Flight Track Log - Related Links

Times and Time Zones

All times are in EDT time to prevent confusion due to time zone crossing. See the N909MN flight status page for this flight to view local times or setup timezone preferences in your user account.


Time Position Orientation Groundspeed Altitude Reporting Facility
EDT Latitude Longitude Course Direction KTS MPH feet Rate Location/Type
Sat 09:31:15 PM 25.7981 -80.2792 120° Southeast 195 224 1,100  Level Miami Center
Sat 09:32:40 PM 25.7561 -80.1994 102° East 235 270 5,500 3,082 Climbing Miami Center
Sat 09:33:41 PM 25.7411 -80.1183 103° East 266 306 8,600 3,891 Climbing Miami Center
Sat 09:36:39 PM 25.6975 -79.9097 104° East 230 265 21,000 3,126 Climbing Miami Center
Sat 09:37:39 PM 25.6803 -79.8356 104° East 238 274 21,000  Level Miami Center
Sat 09:38:50 PM 25.6592 -79.7428 104° East 271 312 21,000  Level Miami Center
Sat 09:39:41 PM 25.6342 -79.6339 103° East 322 371 21,000  Level Miami Center
Sat 09:40:40 PM 25.6111 -79.5272 104° East 349 402 21,000  Level Miami Center
Sat 09:41:40 PM 25.5878 -79.4208 105° East 360 414 21,000  Level Miami Center
Sat 09:42:42 PM 25.5625 -79.3144 103° East 360 414 21,000  Level Miami Center
Sat 09:43:39 PM 25.5411 -79.2125 106° East 355 409 21,000  Level Miami Center
Sat 09:44:41 PM 25.5136 -79.1083 103° East 355 409 21,000 -197 Level Miami Center
Sat 09:45:41 PM 25.4942 -79.0114 104° East 339 390 20,600 -694 Descending Miami Center
Sat 09:46:42 PM 25.4725 -78.9144 106° East 328 377 19,600 -1,008 Descending Miami Center
Sat 09:47:40 PM 25.4486 -78.8197 106° East 323 372 18,600 -966 Descending Miami Center
Sat 09:48:40 PM 25.4247 -78.7294 104° East 318 366 17,700 -934 Descending Miami Center
Sat 09:49:42 PM 25.4050 -78.6417 105° East 305 351 16,700 -984 Descending Miami Center
Sat 09:50:42 PM 25.3831 -78.5539 103° East 300 345 15,700 -915 Descending Miami Center
Sat 09:51:40 PM 25.3653 -78.4664 104° East 300 345 14,900 -756 Descending Miami Center
Sat 09:52:41 PM 25.3453 -78.3789 103° East 295 339 14,200 -689 Descending Miami Center
Sat 09:53:42 PM 25.3272 -78.2911 106° East 295 339 13,500 -712 Descending Miami Center
Sat 09:54:39 PM 25.3050 -78.2058 101° East 295 339 12,800 -763 Descending Miami Center
Sat 09:55:40 PM 25.2892 -78.1183 113° Southeast 290 334 12,000 -787 Descending Miami Center

Login

Don't have an account? Register now (free) for customized features, flight alerts, and more!